createdAt,value
2023-02-11T00:01:16.712Z,62.88
2023-02-11T00:03:43.802Z,62.43
2023-02-11T00:06:11.980Z,61.21
2023-02-11T00:08:39.776Z,56.47
2023-02-11T00:11:07.248Z,51.41
2023-02-11T00:13:34.529Z,50.86
2023-02-11T00:16:07.378Z,52.61
2023-02-11T00:18:34.424Z,54.05
2023-02-11T00:21:10.212Z,54.34
2023-02-11T00:23:38.048Z,56.40
2023-02-11T00:26:12.255Z,56.73
2023-02-11T00:28:39.193Z,57.22
2023-02-11T00:31:06.322Z,57.32
2023-02-11T00:33:33.278Z,58.32
2023-02-11T00:36:08.681Z,58.83
2023-02-11T00:38:36.179Z,59.87
2023-02-11T00:41:03.026Z,61.12
2023-02-11T00:43:29.956Z,64.31
2023-02-11T00:45:57.260Z,70.41
2023-02-11T00:48:24.527Z,69.36
2023-02-11T00:50:51.645Z,68.03
2023-02-11T00:53:18.999Z,64.37
2023-02-11T00:55:46.013Z,61.58
2023-02-11T00:58:13.004Z,59.85
2023-02-11T01:00:40.502Z,55.62
2023-02-11T01:03:07.454Z,52.02
2023-02-11T01:05:35.847Z,52.71
2023-02-11T01:08:03.971Z,53.30
2023-02-11T01:10:31.407Z,55.98
2023-02-11T01:12:58.449Z,59.08
2023-02-11T01:15:25.891Z,58.74
2023-02-11T01:17:53.013Z,61.67
2023-02-11T01:20:24.252Z,64.57
2023-02-11T01:22:51.097Z,68.16
2023-02-11T01:25:18.050Z,63.91
2023-02-11T01:27:45.017Z,62.91
2023-02-11T01:30:14.381Z,60.41
2023-02-11T01:32:41.819Z,54.83
2023-02-11T01:35:09.255Z,51.31
2023-02-11T01:37:36.691Z,50.64
2023-02-11T01:40:07.491Z,50.73
2023-02-11T01:42:34.533Z,51.27
2023-02-11T01:45:22.239Z,52.42
2023-02-11T01:47:49.089Z,53.48
2023-02-11T01:50:16.608Z,54.36
2023-02-11T01:52:46.625Z,55.40
2023-02-11T01:55:33.410Z,56.14
2023-02-11T01:58:05.165Z,56.64
2023-02-11T02:00:39.537Z,57.30
2023-02-11T02:03:11.722Z,58.04
2023-02-11T02:05:58.431Z,58.60
2023-02-11T02:08:47.009Z,59.22
2023-02-11T02:11:14.099Z,59.76
2023-02-11T02:13:41.039Z,60.43
2023-02-11T02:16:18.139Z,60.84
2023-02-11T02:19:31.493Z,61.20
2023-02-11T02:22:07.965Z,61.56
2023-02-11T02:25:01.296Z,64.81
2023-02-11T02:27:48.531Z,74.89
2023-02-11T02:30:33.761Z,71.89
2023-02-11T02:33:34.326Z,67.61
2023-02-11T02:36:48.239Z,63.61
2023-02-11T02:39:21.804Z,59.61
2023-02-11T02:41:51.244Z,53.43
2023-02-11T02:44:20.070Z,52.76
2023-02-11T02:46:47.407Z,54.11
2023-02-11T02:49:16.686Z,55.07
2023-02-11T02:52:16.289Z,57.44
2023-02-11T02:55:12.819Z,58.38
2023-02-11T02:58:35.778Z,59.24
2023-02-11T03:01:14.661Z,58.45
2023-02-11T03:03:51.332Z,58.44
2023-02-11T03:06:47.013Z,59.39
2023-02-11T03:09:25.809Z,60.85
2023-02-11T03:11:53.086Z,60.81
2023-02-11T03:14:22.606Z,61.42
2023-02-11T03:16:51.250Z,64.43
2023-02-11T03:19:23.173Z,72.56
2023-02-11T03:21:52.693Z,71.84
2023-02-11T03:24:41.325Z,68.02
2023-02-11T03:27:44.609Z,64.47
2023-02-11T03:30:26.962Z,62.40
2023-02-11T03:32:59.571Z,60.19
2023-02-11T03:35:36.935Z,55.11
2023-02-11T03:38:18.047Z,50.79
2023-02-11T03:40:46.064Z,50.69
2023-02-11T03:43:26.369Z,50.61
2023-02-11T03:45:55.619Z,51.48
2023-02-11T03:48:33.890Z,53.66
2023-02-11T03:51:05.418Z,55.38
2023-02-11T03:53:32.536Z,56.27
2023-02-11T03:56:05.740Z,57.78
2023-02-11T03:58:32.688Z,59.65
2023-02-11T04:00:59.918Z,61.00
2023-02-11T04:03:26.821Z,64.04
2023-02-11T04:05:54.527Z,69.11
2023-02-11T04:08:21.807Z,66.95
2023-02-11T04:10:48.901Z,63.25
2023-02-11T04:13:15.902Z,57.96
2023-02-11T04:15:42.928Z,52.52
2023-02-11T04:18:10.213Z,52.53
2023-02-11T04:20:37.086Z,53.96
2023-02-11T04:23:04.292Z,54.45
2023-02-11T04:25:31.406Z,55.49
2023-02-11T04:27:58.705Z,56.86
2023-02-11T04:30:25.664Z,58.39
2023-02-11T04:32:54.551Z,60.30
2023-02-11T04:35:22.052Z,61.78
2023-02-11T04:37:48.851Z,64.56
2023-02-11T04:40:15.981Z,66.86
2023-02-11T04:42:42.939Z,66.26
2023-02-11T04:45:10.500Z,62.68
2023-02-11T04:47:38.288Z,57.58
2023-02-11T04:50:06.031Z,52.29
2023-02-11T04:52:33.329Z,51.73
2023-02-11T04:55:00.371Z,53.35
2023-02-11T04:57:27.493Z,55.38
2023-02-11T04:59:54.309Z,55.28
2023-02-11T05:02:21.728Z,57.12
2023-02-11T05:04:48.768Z,57.46
2023-02-11T05:07:15.895Z,59.15
2023-02-11T05:09:43.171Z,59.87
2023-02-11T05:12:10.212Z,59.94
2023-02-11T05:14:37.259Z,61.51
2023-02-11T05:17:04.611Z,62.80
2023-02-11T05:19:32.306Z,68.81
2023-02-11T05:22:03.059Z,68.78
2023-02-11T05:24:32.780Z,65.18
2023-02-11T05:27:00.402Z,60.64
2023-02-11T05:29:27.892Z,57.09
2023-02-11T05:31:55.181Z,52.17
2023-02-11T05:34:22.158Z,52.37
2023-02-11T05:36:49.251Z,53.81
2023-02-11T05:39:16.246Z,55.27
2023-02-11T05:41:43.248Z,57.30
2023-02-11T05:44:10.687Z,58.01
2023-02-11T05:46:37.720Z,59.86
2023-02-11T05:49:05.142Z,59.88
2023-02-11T05:51:32.448Z,60.95
2023-02-11T05:53:59.489Z,63.02
2023-02-11T05:56:26.481Z,67.01
2023-02-11T05:58:53.569Z,67.31
2023-02-11T06:01:20.787Z,62.19
2023-02-11T06:03:50.496Z,60.35
2023-02-11T06:06:18.049Z,56.19
2023-02-11T06:08:44.982Z,51.80
2023-02-11T06:11:11.724Z,51.76
2023-02-11T06:13:38.941Z,54.11
2023-02-11T06:16:06.419Z,55.82
2023-02-11T06:18:34.128Z,57.76
2023-02-11T06:21:01.035Z,57.91
2023-02-11T06:23:30.229Z,60.45
2023-02-11T06:26:02.705Z,60.96
2023-02-11T06:28:31.872Z,61.73
2023-02-11T06:31:00.280Z,65.88
2023-02-11T06:33:27.113Z,68.32
2023-02-11T06:35:53.848Z,66.16
2023-02-11T06:38:23.779Z,59.54
2023-02-11T06:40:51.118Z,54.34
2023-02-11T06:43:18.157Z,54.28
2023-02-11T06:45:45.249Z,54.91
2023-02-11T06:48:12.375Z,55.98
2023-02-11T06:50:39.572Z,56.89
2023-02-11T06:53:06.549Z,59.02
2023-02-11T06:55:35.450Z,59.96
2023-02-11T06:58:02.533Z,60.83
2023-02-11T07:00:29.978Z,62.80
2023-02-11T07:02:57.439Z,67.04
2023-02-11T07:05:24.644Z,67.87
2023-02-11T07:07:51.653Z,64.58
2023-02-11T07:10:18.732Z,58.40
2023-02-11T07:12:45.730Z,54.20
2023-02-11T07:15:12.930Z,54.22
2023-02-11T07:17:39.868Z,55.82
2023-02-11T07:20:07.492Z,57.54
2023-02-11T07:22:35.290Z,58.70
2023-02-11T07:25:02.337Z,60.00
2023-02-11T07:27:29.393Z,60.30
2023-02-11T07:29:56.369Z,61.97
2023-02-11T07:32:23.334Z,65.77
2023-02-11T07:34:50.476Z,65.20
2023-02-11T07:37:17.586Z,63.33
2023-02-11T07:39:44.501Z,57.45
2023-02-11T07:42:11.866Z,54.17
2023-02-11T07:44:39.171Z,53.88
2023-02-11T07:47:06.082Z,55.70
2023-02-11T07:49:33.093Z,58.22
2023-02-11T07:52:00.299Z,59.50
2023-02-11T07:54:27.745Z,60.89
2023-02-11T07:56:54.649Z,60.63
2023-02-11T07:59:21.784Z,60.84
2023-02-11T08:01:49.115Z,63.10
2023-02-11T08:04:16.183Z,66.38
2023-02-11T08:06:44.380Z,64.85
2023-02-11T08:09:19.249Z,60.07
2023-02-11T08:11:46.331Z,54.68
2023-02-11T08:14:13.385Z,53.77
2023-02-11T08:16:40.999Z,54.16
2023-02-11T08:19:13.027Z,55.84
2023-02-11T08:21:40.854Z,56.79
2023-02-11T08:24:08.410Z,58.38
2023-02-11T08:26:36.582Z,59.23
2023-02-11T08:29:14.703Z,60.26
2023-02-11T08:31:45.072Z,60.85
2023-02-11T08:34:14.949Z,61.16
2023-02-11T08:36:43.305Z,61.85
2023-02-11T08:39:20.029Z,63.37
2023-02-11T08:41:50.626Z,65.90
2023-02-11T08:44:19.175Z,63.07
2023-02-11T08:46:47.503Z,57.24
2023-02-11T08:49:15.268Z,55.15
2023-02-11T08:51:43.077Z,56.27
2023-02-11T08:54:10.699Z,57.95
2023-02-11T08:56:39.596Z,59.04
2023-02-11T08:59:07.587Z,59.05
2023-02-11T09:01:34.725Z,60.44
2023-02-11T09:04:02.133Z,61.05
2023-02-11T09:06:29.752Z,61.60
2023-02-11T09:08:58.338Z,61.32
2023-02-11T09:11:29.621Z,61.39
2023-02-11T09:13:57.486Z,63.49
2023-02-11T09:16:27.922Z,65.26
2023-02-11T09:18:57.886Z,63.40
2023-02-11T09:21:25.589Z,57.15
2023-02-11T09:23:53.170Z,54.54
2023-02-11T09:26:25.904Z,54.96
2023-02-11T09:28:53.340Z,55.75
2023-02-11T09:31:23.249Z,55.93
2023-02-11T09:33:52.703Z,56.73
2023-02-11T09:36:23.656Z,56.96
2023-02-11T09:38:51.598Z,57.18
2023-02-11T09:41:24.607Z,57.81
2023-02-11T09:43:55.327Z,58.35
2023-02-11T09:46:24.971Z,59.10
2023-02-11T09:48:56.136Z,59.53
2023-02-11T09:51:45.090Z,59.96
2023-02-11T09:54:20.277Z,60.67
2023-02-11T09:56:47.409Z,60.83
2023-02-11T09:59:16.248Z,61.09
2023-02-11T10:01:55.372Z,61.06
2023-02-11T10:04:45.030Z,61.12
2023-02-11T10:07:17.889Z,61.45
2023-02-11T10:10:03.097Z,60.80
2023-02-11T10:12:38.747Z,60.82
2023-02-11T10:15:18.281Z,61.17
2023-02-11T10:17:57.021Z,60.88
2023-02-11T10:21:12.183Z,61.27
2023-02-11T10:23:43.170Z,60.95
2023-02-11T10:26:19.045Z,61.36
2023-02-11T10:28:53.503Z,60.92
2023-02-11T10:31:27.316Z,61.12
2023-02-11T10:34:07.291Z,60.21
2023-02-11T10:36:37.170Z,60.49
2023-02-11T10:39:19.425Z,59.86
2023-02-11T10:41:47.669Z,59.66
2023-02-11T10:44:42.828Z,60.27
2023-02-11T10:47:17.553Z,60.42
2023-02-11T10:49:46.316Z,60.74
2023-02-11T10:52:18.134Z,60.67
2023-02-11T10:54:58.371Z,60.81
2023-02-11T10:57:31.695Z,60.73
2023-02-11T11:00:02.699Z,60.49
2023-02-11T11:02:34.888Z,60.06
2023-02-11T11:05:20.290Z,59.28
2023-02-11T11:08:00.110Z,59.76
2023-02-11T11:10:46.220Z,59.29
2023-02-11T11:13:29.273Z,59.06
2023-02-11T11:16:12.786Z,59.04
2023-02-11T11:18:41.423Z,59.30
2023-02-11T11:21:16.536Z,58.63
2023-02-11T11:23:51.982Z,58.93
2023-02-11T11:26:19.892Z,59.23
2023-02-11T11:28:49.851Z,58.44
2023-02-11T11:31:23.080Z,58.95
2023-02-11T11:33:53.894Z,58.88
2023-02-11T11:36:24.452Z,59.41
2023-02-11T11:38:57.011Z,59.26
2023-02-11T11:41:28.445Z,59.42
2023-02-11T11:44:00.305Z,59.62
2023-02-11T11:46:37.048Z,59.84
2023-02-11T11:49:23.540Z,59.76
2023-02-11T11:52:14.367Z,59.81
2023-02-11T11:54:46.612Z,59.81
2023-02-11T11:57:20.533Z,59.91
2023-02-11T11:59:48.277Z,59.93
2023-02-11T12:02:43.568Z,60.16
2023-02-11T12:05:48.603Z,60.37
2023-02-11T12:08:44.054Z,60.36
2023-02-11T12:11:39.029Z,60.33
2023-02-11T12:14:35.497Z,60.32
2023-02-11T12:17:31.580Z,60.56
2023-02-11T12:20:08.523Z,60.81
2023-02-11T12:22:54.253Z,60.83
2023-02-11T12:25:44.747Z,61.07
2023-02-11T12:28:30.261Z,61.04
2023-02-11T12:31:11.344Z,61.01
2023-02-11T12:33:39.769Z,61.11
2023-02-11T12:36:22.216Z,61.13
2023-02-11T12:39:04.867Z,61.38
2023-02-11T12:42:25.589Z,61.28
2023-02-11T12:45:11.724Z,61.11
2023-02-11T12:48:13.404Z,61.33
2023-02-11T12:51:00.604Z,61.27
2023-02-11T12:53:43.645Z,61.61
2023-02-11T12:56:22.093Z,61.74
2023-02-11T12:58:55.170Z,61.79
2023-02-11T13:01:44.659Z,61.80
2023-02-11T13:04:29.208Z,62.14
2023-02-11T13:07:02.606Z,65.76
2023-02-11T13:09:39.374Z,68.61
2023-02-11T13:12:27.250Z,65.36
2023-02-11T13:14:59.760Z,62.14
2023-02-11T13:17:34.300Z,56.04
2023-02-11T13:20:45.809Z,53.96
2023-02-11T13:23:15.698Z,54.45
2023-02-11T13:25:55.178Z,55.57
2023-02-11T13:29:04.292Z,57.14
2023-02-11T13:31:32.249Z,57.73
2023-02-11T13:33:59.283Z,58.93
2023-02-11T13:36:28.956Z,59.64
2023-02-11T13:39:21.418Z,60.47
2023-02-11T13:41:52.629Z,60.64
2023-02-11T13:44:25.360Z,61.67
2023-02-11T13:47:02.270Z,61.96
2023-02-11T13:49:35.808Z,65.48
2023-02-11T13:52:06.855Z,69.73
2023-02-11T13:54:38.820Z,65.57
2023-02-11T13:57:20.849Z,61.52
2023-02-11T13:59:52.354Z,56.14
2023-02-11T14:02:47.881Z,55.56
2023-02-11T14:05:42.284Z,56.62
2023-02-11T14:08:30.747Z,58.14
2023-02-11T14:11:12.926Z,60.73
2023-02-11T14:13:49.177Z,61.31
2023-02-11T14:16:35.242Z,62.52
2023-02-11T14:19:04.505Z,67.58
2023-02-11T14:21:43.421Z,67.36
2023-02-11T14:24:11.408Z,64.22
2023-02-11T14:26:59.606Z,58.41
2023-02-11T14:29:26.644Z,56.03
2023-02-11T14:31:56.853Z,56.79
2023-02-11T14:34:47.174Z,57.77
2023-02-11T14:37:36.413Z,58.54
2023-02-11T14:40:05.606Z,59.14
2023-02-11T14:42:32.791Z,59.85
2023-02-11T14:45:07.013Z,61.58
2023-02-11T14:48:09.182Z,62.24
2023-02-11T14:50:58.530Z,67.73
2023-02-11T14:53:28.771Z,67.81
2023-02-11T14:55:56.178Z,63.37
2023-02-11T14:58:23.122Z,61.10
2023-02-11T15:01:01.976Z,57.61
2023-02-11T15:03:29.251Z,55.57
2023-02-11T15:06:00.608Z,55.72
2023-02-11T15:08:29.025Z,57.72
2023-02-11T15:10:57.106Z,59.13
2023-02-11T15:13:27.326Z,61.43
2023-02-11T15:16:19.888Z,63.53
2023-02-11T15:18:59.009Z,66.66
2023-02-11T15:21:31.625Z,65.17
2023-02-11T15:24:21.093Z,62.02
2023-02-11T15:26:58.529Z,61.33
2023-02-11T15:29:27.375Z,57.07
2023-02-11T15:32:16.036Z,53.84
2023-02-11T15:34:44.633Z,54.37
2023-02-11T15:37:25.340Z,55.75
2023-02-11T15:39:54.378Z,57.21
2023-02-11T15:42:31.433Z,58.72
2023-02-11T15:45:29.448Z,60.48
2023-02-11T15:48:00.177Z,64.06
2023-02-11T15:50:31.312Z,67.13
2023-02-11T15:53:02.622Z,66.49
2023-02-11T15:55:30.779Z,66.12
2023-02-11T15:58:00.938Z,64.65
2023-02-11T16:00:50.622Z,63.51
2023-02-11T16:03:24.619Z,63.88
2023-02-11T16:05:52.137Z,62.59
2023-02-11T16:08:29.584Z,61.98
2023-02-11T16:11:00.140Z,59.23
2023-02-11T16:13:29.906Z,56.36
2023-02-11T16:16:02.747Z,56.34
2023-02-11T16:18:39.080Z,57.68
2023-02-11T16:21:14.865Z,59.78
2023-02-11T16:23:42.871Z,61.04
2023-02-11T16:26:26.147Z,64.21
2023-02-11T16:28:54.288Z,72.10
2023-02-11T16:31:21.612Z,72.63
2023-02-11T16:33:48.570Z,69.65
2023-02-11T16:36:19.544Z,67.80
2023-02-11T16:38:46.549Z,66.29
2023-02-11T16:41:13.729Z,64.97
2023-02-11T16:43:40.948Z,63.52
2023-02-11T16:46:09.969Z,62.48
2023-02-11T16:48:38.308Z,61.81
2023-02-11T16:51:05.562Z,60.72
2023-02-11T16:53:32.773Z,60.46
2023-02-11T16:55:59.891Z,57.79
2023-02-11T16:58:27.105Z,55.46
2023-02-11T17:00:54.503Z,56.62
2023-02-11T17:03:27.478Z,58.04
2023-02-11T17:05:56.526Z,58.88
2023-02-11T17:08:23.822Z,61.14
2023-02-11T17:10:51.016Z,63.91
2023-02-11T17:13:18.392Z,70.59
2023-02-11T17:15:45.533Z,70.29
2023-02-11T17:18:14.722Z,65.55
2023-02-11T17:20:41.747Z,65.16
2023-02-11T17:23:09.504Z,63.03
2023-02-11T17:25:40.977Z,62.05
2023-02-11T17:28:09.547Z,61.14
2023-02-11T17:30:36.923Z,60.46
2023-02-11T17:33:04.053Z,61.23
2023-02-11T17:35:31.483Z,60.88
2023-02-11T17:37:59.480Z,60.31
2023-02-11T17:40:27.293Z,57.35
2023-02-11T17:42:54.445Z,54.48
2023-02-11T17:45:22.475Z,55.27
2023-02-11T17:47:49.885Z,56.93
2023-02-11T17:50:17.089Z,59.22
2023-02-11T17:52:44.414Z,61.10
2023-02-11T17:55:11.866Z,65.02
2023-02-11T17:57:39.125Z,71.12
2023-02-11T18:00:08.862Z,69.95
2023-02-11T18:02:35.996Z,68.61
2023-02-11T18:05:03.951Z,67.06
2023-02-11T18:07:30.886Z,65.42
2023-02-11T18:09:57.855Z,63.88
2023-02-11T18:12:27.667Z,62.87
2023-02-11T18:14:57.892Z,62.00
2023-02-11T18:17:25.627Z,61.42
2023-02-11T18:19:57.187Z,60.78
2023-02-11T18:22:24.828Z,60.74
2023-02-11T18:24:53.817Z,60.52
2023-02-11T18:27:22.161Z,60.03
2023-02-11T18:29:49.041Z,57.71
2023-02-11T18:32:16.448Z,55.55
2023-02-11T18:34:43.504Z,56.39
2023-02-11T18:37:11.734Z,57.76
2023-02-11T18:39:39.091Z,58.88
2023-02-11T18:42:06.417Z,60.64
2023-02-11T18:44:33.730Z,64.59
2023-02-11T18:47:01.424Z,71.43
2023-02-11T18:49:28.879Z,71.00
2023-02-11T18:51:55.970Z,68.65
2023-02-11T18:54:23.076Z,67.19
2023-02-11T18:56:50.371Z,65.58
2023-02-11T18:59:17.483Z,64.29
2023-02-11T19:01:47.305Z,63.72
2023-02-11T19:04:19.292Z,62.87
2023-02-11T19:06:49.776Z,62.07
2023-02-11T19:09:19.756Z,61.55
2023-02-11T19:11:47.609Z,61.04
2023-02-11T19:14:34.560Z,60.77
2023-02-11T19:17:05.312Z,60.88
2023-02-11T19:19:34.794Z,60.54
2023-02-11T19:22:03.748Z,60.35
2023-02-11T19:24:31.141Z,59.96
2023-02-11T19:27:00.456Z,57.70
2023-02-11T19:29:28.551Z,56.23
2023-02-11T19:31:56.312Z,57.50
2023-02-11T19:34:24.403Z,59.12
2023-02-11T19:36:51.818Z,60.34
2023-02-11T19:39:19.169Z,61.56
2023-02-11T19:41:47.752Z,66.17
2023-02-11T19:44:17.969Z,72.10
2023-02-11T19:46:46.326Z,70.97
2023-02-11T19:49:16.927Z,68.39
2023-02-11T19:51:44.553Z,65.83
2023-02-11T19:54:11.888Z,64.20
2023-02-11T19:56:39.254Z,63.22
2023-02-11T19:59:09.170Z,62.92
2023-02-11T20:01:37.159Z,62.82
2023-02-11T20:04:04.052Z,62.62
2023-02-11T20:06:32.875Z,62.17
2023-02-11T20:09:03.109Z,61.67
2023-02-11T20:11:31.981Z,61.67
2023-02-11T20:13:59.824Z,61.52
2023-02-11T20:16:41.008Z,60.94
2023-02-11T20:19:18.349Z,60.76
2023-02-11T20:21:48.547Z,60.39
2023-02-11T20:24:17.571Z,60.03
2023-02-11T20:26:46.700Z,59.80
2023-02-11T20:29:13.673Z,59.76
2023-02-11T20:31:40.650Z,57.78
2023-02-11T20:34:07.740Z,56.59
2023-02-11T20:36:37.748Z,58.15
2023-02-11T20:39:06.488Z,59.70
2023-02-11T20:41:35.806Z,60.90
2023-02-11T20:44:05.901Z,64.41
2023-02-11T20:46:35.053Z,70.71
2023-02-11T20:49:02.547Z,70.85
2023-02-11T20:51:32.847Z,68.87
2023-02-11T20:54:00.786Z,67.14
2023-02-11T20:56:31.661Z,65.74
2023-02-11T20:59:00.165Z,64.74
2023-02-11T21:01:31.063Z,63.57
2023-02-11T21:03:57.978Z,62.78
2023-02-11T21:06:27.897Z,62.71
2023-02-11T21:08:54.781Z,61.73
2023-02-11T21:11:21.658Z,61.24
2023-02-11T21:13:49.087Z,61.00
2023-02-11T21:16:20.706Z,60.61
2023-02-11T21:18:49.004Z,60.12
2023-02-11T21:21:17.600Z,59.95
2023-02-11T21:23:45.019Z,57.85
2023-02-11T21:26:12.138Z,56.95
2023-02-11T21:28:41.044Z,58.21
2023-02-11T21:31:09.932Z,59.84
2023-02-11T21:33:37.137Z,61.34
2023-02-11T21:36:08.041Z,66.38
2023-02-11T21:38:35.428Z,72.09
2023-02-11T21:41:06.623Z,69.96
2023-02-11T21:43:34.059Z,67.98
2023-02-11T21:46:01.415Z,66.99
2023-02-11T21:48:28.709Z,66.23
2023-02-11T21:50:55.575Z,65.56
2023-02-11T21:53:22.494Z,65.06
2023-02-11T21:55:54.854Z,64.71
2023-02-11T21:58:22.011Z,64.42
2023-02-11T22:00:48.898Z,64.03
2023-02-11T22:03:15.981Z,63.73
2023-02-11T22:05:43.043Z,63.28
2023-02-11T22:08:10.053Z,62.93
2023-02-11T22:10:37.093Z,62.63
2023-02-11T22:13:03.982Z,62.94
2023-02-11T22:15:31.186Z,63.02
2023-02-11T22:17:58.214Z,62.71
2023-02-11T22:20:25.574Z,62.36
2023-02-11T22:22:52.563Z,62.19
2023-02-11T22:25:19.607Z,62.17
2023-02-11T22:27:46.613Z,62.12
2023-02-11T22:30:14.465Z,61.96
2023-02-11T22:32:42.765Z,61.96
2023-02-11T22:35:09.890Z,61.84
2023-02-11T22:37:36.942Z,61.81
2023-02-11T22:40:04.325Z,61.74
2023-02-11T22:42:31.168Z,61.68
2023-02-11T22:44:58.389Z,61.55
2023-02-11T22:47:25.459Z,61.38
2023-02-11T22:49:52.405Z,61.45
2023-02-11T22:52:19.324Z,61.60
2023-02-11T22:54:47.614Z,61.91
2023-02-11T22:57:14.705Z,61.68
2023-02-11T22:59:42.020Z,61.43
2023-02-11T23:02:09.072Z,61.23
2023-02-11T23:04:36.114Z,61.17
2023-02-11T23:07:03.164Z,61.03
2023-02-11T23:09:30.108Z,61.17
2023-02-11T23:11:58.178Z,61.17
2023-02-11T23:14:25.912Z,61.16
2023-02-11T23:16:53.073Z,61.27
2023-02-11T23:19:20.323Z,60.97
2023-02-11T23:21:51.747Z,61.03
2023-02-11T23:24:18.716Z,61.14
2023-02-11T23:26:46.184Z,60.82
2023-02-11T23:29:13.665Z,60.87
2023-02-11T23:31:44.170Z,60.68
2023-02-11T23:34:12.470Z,60.79
2023-02-11T23:36:39.373Z,60.91
2023-02-11T23:39:06.626Z,60.80
2023-02-11T23:41:33.834Z,61.03
2023-02-11T23:44:01.331Z,60.98
2023-02-11T23:46:28.766Z,61.11
2023-02-11T23:48:56.243Z,61.00
2023-02-11T23:51:24.154Z,60.36
2023-02-11T23:53:52.910Z,60.17
2023-02-11T23:56:26.281Z,60.15
2023-02-11T23:58:56.349Z,60.56
